sensor_id;sensor_type;location;lat;lon;timestamp;P1;durP1;ratioP1;P2;durP2;ratioP2
21168;SDS011;10742;51.816;8.662;2023-05-23T00:01:24;1999.90;;;999.90;;
21168;SDS011;10742;51.816;8.662;2023-05-23T00:04:26;1999.90;;;999.90;;
21168;SDS011;10742;51.816;8.662;2023-05-23T00:07:30;1999.90;;;999.90;;
21168;SDS011;10742;51.816;8.662;2023-05-23T00:10:33;1999.90;;;999.90;;
21168;SDS011;10742;51.816;8.662;2023-05-23T00:13:35;1999.90;;;999.90;;
21168;SDS011;10742;51.816;8.662;2023-05-23T00:16:38;1999.90;;;999.90;;
21168;SDS011;10742;51.816;8.662;2023-05-23T00:20:01;1999.90;;;999.90;;
21168;SDS011;10742;51.816;8.662;2023-05-23T00:23:23;1999.90;;;999.90;;
21168;SDS011;10742;51.816;8.662;2023-05-23T00:26:26;1999.90;;;999.90;;
21168;SDS011;10742;51.816;8.662;2023-05-23T00:29:30;1999.90;;;999.90;;
21168;SDS011;10742;51.816;8.662;2023-05-23T00:32:32;1999.90;;;999.90;;
21168;SDS011;10742;51.816;8.662;2023-05-23T00:35:36;1999.90;;;999.90;;
21168;SDS011;10742;51.816;8.662;2023-05-23T00:38:38;1999.90;;;999.90;;
21168;SDS011;10742;51.816;8.662;2023-05-23T00:41:40;1999.90;;;999.90;;
21168;SDS011;10742;51.816;8.662;2023-05-23T00:44:43;1999.90;;;999.90;;
21168;SDS011;10742;51.816;8.662;2023-05-23T00:47:45;1999.90;;;999.90;;
21168;SDS011;10742;51.816;8.662;2023-05-23T00:50:48;1999.90;;;999.90;;
21168;SDS011;10742;51.816;8.662;2023-05-23T00:53:52;1999.90;;;999.90;;
21168;SDS011;10742;51.816;8.662;2023-05-23T00:56:54;1999.90;;;999.90;;
21168;SDS011;10742;51.816;8.662;2023-05-23T00:59:57;1999.90;;;999.90;;
21168;SDS011;10742;51.816;8.662;2023-05-23T01:02:59;1999.90;;;999.90;;
21168;SDS011;10742;51.816;8.662;2023-05-23T01:06:02;1999.90;;;999.90;;
21168;SDS011;10742;51.816;8.662;2023-05-23T01:09:05;1999.90;;;999.90;;
21168;SDS011;10742;51.816;8.662;2023-05-23T01:15:50;1999.90;;;999.90;;
21168;SDS011;10742;51.816;8.662;2023-05-23T01:19:16;1999.90;;;999.90;;
21168;SDS011;10742;51.816;8.662;2023-05-23T01:29:02;1999.90;;;999.90;;
21168;SDS011;10742;51.816;8.662;2023-05-23T01:32:11;1999.90;;;999.90;;
21168;SDS011;10742;51.816;8.662;2023-05-23T01:35:17;1999.90;;;999.90;;
21168;SDS011;10742;51.816;8.662;2023-05-23T01:38:24;1999.90;;;999.90;;
21168;SDS011;10742;51.816;8.662;2023-05-23T01:41:27;1999.90;;;999.90;;
21168;SDS011;10742;51.816;8.662;2023-05-23T01:44:29;1999.90;;;999.90;;
21168;SDS011;10742;51.816;8.662;2023-05-23T01:47:34;1999.90;;;999.90;;
21168;SDS011;10742;51.816;8.662;2023-05-23T01:50:37;1999.90;;;999.90;;
21168;SDS011;10742;51.816;8.662;2023-05-23T01:53:40;1999.90;;;999.90;;
21168;SDS011;10742;51.816;8.662;2023-05-23T01:56:44;1999.90;;;999.90;;
21168;SDS011;10742;51.816;8.662;2023-05-23T01:59:48;1999.90;;;999.90;;
21168;SDS011;10742;51.816;8.662;2023-05-23T02:02:51;1999.90;;;999.90;;
21168;SDS011;10742;51.816;8.662;2023-05-23T02:05:53;1999.90;;;999.90;;
21168;SDS011;10742;51.816;8.662;2023-05-23T02:08:55;1999.90;;;999.90;;
21168;SDS011;10742;51.816;8.662;2023-05-23T02:11:58;1999.90;;;999.90;;
21168;SDS011;10742;51.816;8.662;2023-05-23T02:15:00;1999.90;;;996.40;;
21168;SDS011;10742;51.816;8.662;2023-05-23T02:18:04;1999.90;;;999.90;;
21168;SDS011;10742;51.816;8.662;2023-05-23T02:21:07;1999.90;;;999.90;;
21168;SDS011;10742;51.816;8.662;2023-05-23T02:24:11;1999.90;;;991.83;;
21168;SDS011;10742;51.816;8.662;2023-05-23T02:27:13;1999.90;;;999.90;;
21168;SDS011;10742;51.816;8.662;2023-05-23T02:30:16;1999.90;;;988.13;;
21168;SDS011;10742;51.816;8.662;2023-05-23T02:33:18;1999.90;;;984.20;;
21168;SDS011;10742;51.816;8.662;2023-05-23T02:36:20;1999.90;;;974.83;;
21168;SDS011;10742;51.816;8.662;2023-05-23T02:39:23;1999.90;;;959.40;;
21168;SDS011;10742;51.816;8.662;2023-05-23T02:42:26;1999.90;;;944.83;;
21168;SDS011;10742;51.816;8.662;2023-05-23T02:45:28;1999.90;;;895.13;;
21168;SDS011;10742;51.816;8.662;2023-05-23T02:48:30;1999.90;;;886.73;;
21168;SDS011;10742;51.816;8.662;2023-05-23T02:51:33;1999.90;;;861.73;;
21168;SDS011;10742;51.816;8.662;2023-05-23T02:54:35;1999.90;;;833.67;;
21168;SDS011;10742;51.816;8.662;2023-05-23T02:57:37;1999.90;;;836.03;;
21168;SDS011;10742;51.816;8.662;2023-05-23T03:00:39;1999.90;;;882.77;;
21168;SDS011;10742;51.816;8.662;2023-05-23T03:03:44;1999.90;;;870.93;;
21168;SDS011;10742;51.816;8.662;2023-05-23T03:06:47;1999.90;;;902.60;;
21168;SDS011;10742;51.816;8.662;2023-05-23T03:09:49;1999.90;;;942.37;;
21168;SDS011;10742;51.816;8.662;2023-05-23T03:12:52;1999.90;;;958.27;;
21168;SDS011;10742;51.816;8.662;2023-05-23T03:15:54;1999.90;;;988.17;;
21168;SDS011;10742;51.816;8.662;2023-05-23T03:18:56;1999.90;;;995.63;;
21168;SDS011;10742;51.816;8.662;2023-05-23T03:21:59;1999.90;;;999.90;;
21168;SDS011;10742;51.816;8.662;2023-05-23T03:25:02;1999.90;;;999.90;;
21168;SDS011;10742;51.816;8.662;2023-05-23T03:28:07;1999.90;;;999.90;;
21168;SDS011;10742;51.816;8.662;2023-05-23T03:31:09;1999.90;;;999.90;;
21168;SDS011;10742;51.816;8.662;2023-05-23T03:34:12;1999.90;;;999.90;;
21168;SDS011;10742;51.816;8.662;2023-05-23T03:37:14;1999.90;;;999.90;;
21168;SDS011;10742;51.816;8.662;2023-05-23T03:40:18;1999.90;;;999.90;;
21168;SDS011;10742;51.816;8.662;2023-05-23T03:43:20;1999.90;;;999.90;;
21168;SDS011;10742;51.816;8.662;2023-05-23T03:46:23;1999.90;;;999.90;;
21168;SDS011;10742;51.816;8.662;2023-05-23T03:49:25;1999.90;;;999.90;;
21168;SDS011;10742;51.816;8.662;2023-05-23T03:52:27;1999.90;;;999.90;;
21168;SDS011;10742;51.816;8.662;2023-05-23T03:55:30;1999.90;;;999.90;;
21168;SDS011;10742;51.816;8.662;2023-05-23T03:58:35;1999.90;;;999.90;;
21168;SDS011;10742;51.816;8.662;2023-05-23T04:01:43;1999.90;;;999.90;;
21168;SDS011;10742;51.816;8.662;2023-05-23T04:04:45;1999.90;;;999.90;;
21168;SDS011;10742;51.816;8.662;2023-05-23T04:07:48;1999.90;;;999.90;;
21168;SDS011;10742;51.816;8.662;2023-05-23T04:10:53;1999.90;;;999.90;;
21168;SDS011;10742;51.816;8.662;2023-05-23T04:13:57;1999.90;;;999.90;;
21168;SDS011;10742;51.816;8.662;2023-05-23T04:17:00;1999.90;;;999.90;;
21168;SDS011;10742;51.816;8.662;2023-05-23T04:20:05;1999.90;;;999.90;;
21168;SDS011;10742;51.816;8.662;2023-05-23T04:23:10;1999.90;;;999.90;;
21168;SDS011;10742;51.816;8.662;2023-05-23T04:26:15;1999.90;;;999.90;;
21168;SDS011;10742;51.816;8.662;2023-05-23T04:29:25;1999.90;;;999.90;;
21168;SDS011;10742;51.816;8.662;2023-05-23T04:32:29;1999.90;;;999.90;;
21168;SDS011;10742;51.816;8.662;2023-05-23T04:35:31;1999.90;;;999.90;;
21168;SDS011;10742;51.816;8.662;2023-05-23T04:38:35;1999.90;;;999.90;;
21168;SDS011;10742;51.816;8.662;2023-05-23T04:41:39;1999.90;;;999.90;;
21168;SDS011;10742;51.816;8.662;2023-05-23T04:44:52;1999.90;;;999.90;;
21168;SDS011;10742;51.816;8.662;2023-05-23T04:48:15;1999.90;;;999.90;;
21168;SDS011;10742;51.816;8.662;2023-05-23T04:51:22;1999.90;;;999.90;;
21168;SDS011;10742;51.816;8.662;2023-05-23T04:54:32;1999.90;;;999.90;;
21168;SDS011;10742;51.816;8.662;2023-05-23T04:57:38;1999.90;;;999.90;;
21168;SDS011;10742;51.816;8.662;2023-05-23T05:00:41;1999.90;;;999.90;;
21168;SDS011;10742;51.816;8.662;2023-05-23T05:03:43;1999.90;;;999.90;;
21168;SDS011;10742;51.816;8.662;2023-05-23T05:06:46;1999.90;;;999.90;;
21168;SDS011;10742;51.816;8.662;2023-05-23T05:09:49;1999.90;;;999.90;;
21168;SDS011;10742;51.816;8.662;2023-05-23T05:12:52;1999.90;;;999.90;;
21168;SDS011;10742;51.816;8.662;2023-05-23T05:15:54;1999.90;;;999.90;;
21168;SDS011;10742;51.816;8.662;2023-05-23T05:18:58;1999.90;;;999.90;;
21168;SDS011;10742;51.816;8.662;2023-05-23T05:22:00;1999.90;;;999.90;;
21168;SDS011;10742;51.816;8.662;2023-05-23T05:25:04;1999.90;;;999.90;;
21168;SDS011;10742;51.816;8.662;2023-05-23T05:28:08;1999.90;;;999.90;;
21168;SDS011;10742;51.816;8.662;2023-05-23T05:31:16;1999.90;;;999.90;;
21168;SDS011;10742;51.816;8.662;2023-05-23T05:34:20;1999.90;;;999.90;;
21168;SDS011;10742;51.816;8.662;2023-05-23T05:37:23;1999.90;;;999.90;;
21168;SDS011;10742;51.816;8.662;2023-05-23T05:40:26;1999.90;;;999.90;;
21168;SDS011;10742;51.816;8.662;2023-05-23T05:43:29;1999.90;;;999.90;;
21168;SDS011;10742;51.816;8.662;2023-05-23T05:46:32;1999.90;;;999.90;;
21168;SDS011;10742;51.816;8.662;2023-05-23T05:49:34;1999.90;;;999.90;;
21168;SDS011;10742;51.816;8.662;2023-05-23T05:52:37;1999.90;;;999.90;;
21168;SDS011;10742;51.816;8.662;2023-05-23T05:55:41;1999.90;;;999.90;;
21168;SDS011;10742;51.816;8.662;2023-05-23T05:58:43;1999.90;;;999.90;;
21168;SDS011;10742;51.816;8.662;2023-05-23T06:01:48;1999.90;;;999.90;;
21168;SDS011;10742;51.816;8.662;2023-05-23T06:04:52;1999.90;;;999.90;;
21168;SDS011;10742;51.816;8.662;2023-05-23T06:07:54;1999.90;;;999.90;;
21168;SDS011;10742;51.816;8.662;2023-05-23T06:10:56;1999.90;;;999.90;;
21168;SDS011;10742;51.816;8.662;2023-05-23T06:14:00;1999.90;;;999.90;;
21168;SDS011;10742;51.816;8.662;2023-05-23T06:17:02;1999.90;;;999.90;;
21168;SDS011;10742;51.816;8.662;2023-05-23T06:20:05;1999.90;;;999.90;;
21168;SDS011;10742;51.816;8.662;2023-05-23T06:23:11;1999.90;;;999.90;;
21168;SDS011;10742;51.816;8.662;2023-05-23T06:26:14;1999.90;;;999.90;;
21168;SDS011;10742;51.816;8.662;2023-05-23T06:29:17;1999.90;;;999.90;;
21168;SDS011;10742;51.816;8.662;2023-05-23T06:32:19;1999.90;;;999.90;;
21168;SDS011;10742;51.816;8.662;2023-05-23T06:35:21;1999.90;;;999.90;;
21168;SDS011;10742;51.816;8.662;2023-05-23T06:38:25;1999.90;;;999.90;;
21168;SDS011;10742;51.816;8.662;2023-05-23T06:41:28;1999.90;;;999.90;;
21168;SDS011;10742;51.816;8.662;2023-05-23T06:44:31;1999.90;;;999.90;;
21168;SDS011;10742;51.816;8.662;2023-05-23T06:47:36;1999.90;;;999.90;;
21168;SDS011;10742;51.816;8.662;2023-05-23T06:50:39;1999.90;;;999.90;;
21168;SDS011;10742;51.816;8.662;2023-05-23T06:53:43;1999.90;;;999.90;;
21168;SDS011;10742;51.816;8.662;2023-05-23T06:56:45;1999.90;;;999.90;;
21168;SDS011;10742;51.816;8.662;2023-05-23T06:59:49;1999.90;;;999.90;;
21168;SDS011;10742;51.816;8.662;2023-05-23T07:02:51;1999.90;;;999.90;;
21168;SDS011;10742;51.816;8.662;2023-05-23T07:05:55;1999.90;;;999.90;;
21168;SDS011;10742;51.816;8.662;2023-05-23T07:08:57;1999.90;;;999.90;;
21168;SDS011;10742;51.816;8.662;2023-05-23T07:12:01;1999.90;;;999.90;;
21168;SDS011;10742;51.816;8.662;2023-05-23T07:15:04;1999.90;;;999.90;;
21168;SDS011;10742;51.816;8.662;2023-05-23T07:18:06;1999.90;;;999.90;;
21168;SDS011;10742;51.816;8.662;2023-05-23T07:21:09;1999.90;;;999.90;;
21168;SDS011;10742;51.816;8.662;2023-05-23T07:24:12;1999.90;;;999.90;;
21168;SDS011;10742;51.816;8.662;2023-05-23T07:27:14;1999.90;;;999.90;;
21168;SDS011;10742;51.816;8.662;2023-05-23T07:30:17;1999.90;;;999.90;;
21168;SDS011;10742;51.816;8.662;2023-05-23T07:33:21;1999.90;;;999.90;;
21168;SDS011;10742;51.816;8.662;2023-05-23T07:36:24;1999.90;;;999.90;;
21168;SDS011;10742;51.816;8.662;2023-05-23T07:39:28;1999.90;;;999.90;;
21168;SDS011;10742;51.816;8.662;2023-05-23T07:42:32;1999.90;;;999.90;;
21168;SDS011;10742;51.816;8.662;2023-05-23T07:45:34;1999.90;;;999.90;;
21168;SDS011;10742;51.816;8.662;2023-05-23T07:48:36;1999.90;;;999.90;;
21168;SDS011;10742;51.816;8.662;2023-05-23T07:51:39;1999.90;;;999.90;;
21168;SDS011;10742;51.816;8.662;2023-05-23T07:54:44;1999.90;;;999.90;;
21168;SDS011;10742;51.816;8.662;2023-05-23T07:57:47;1999.90;;;999.90;;
21168;SDS011;10742;51.816;8.662;2023-05-23T08:00:49;1999.90;;;999.90;;
21168;SDS011;10742;51.816;8.662;2023-05-23T08:04:13;1999.90;;;999.90;;
21168;SDS011;10742;51.816;8.662;2023-05-23T08:07:21;1999.90;;;999.90;;
21168;SDS011;10742;51.816;8.662;2023-05-23T08:10:28;1999.90;;;999.90;;
21168;SDS011;10742;51.816;8.662;2023-05-23T08:13:38;1999.90;;;999.90;;
21168;SDS011;10742;51.816;8.662;2023-05-23T08:16:58;1999.90;;;999.90;;
21168;SDS011;10742;51.816;8.662;2023-05-23T08:20:01;1999.90;;;999.90;;
21168;SDS011;10742;51.816;8.662;2023-05-23T08:23:05;1999.90;;;999.90;;
21168;SDS011;10742;51.816;8.662;2023-05-23T08:26:08;1999.90;;;999.90;;
21168;SDS011;10742;51.816;8.662;2023-05-23T08:29:11;1999.90;;;999.90;;
21168;SDS011;10742;51.816;8.662;2023-05-23T08:32:16;1999.90;;;999.90;;
21168;SDS011;10742;51.816;8.662;2023-05-23T08:35:20;1999.90;;;999.90;;
21168;SDS011;10742;51.816;8.662;2023-05-23T08:38:24;1999.90;;;999.90;;
21168;SDS011;10742;51.816;8.662;2023-05-23T08:41:38;1999.90;;;999.90;;
21168;SDS011;10742;51.816;8.662;2023-05-23T08:44:44;1999.90;;;999.90;;
21168;SDS011;10742;51.816;8.662;2023-05-23T08:47:47;1999.90;;;999.90;;
21168;SDS011;10742;51.816;8.662;2023-05-23T08:50:53;1999.90;;;999.90;;
21168;SDS011;10742;51.816;8.662;2023-05-23T08:53:57;1999.90;;;999.90;;
21168;SDS011;10742;51.816;8.662;2023-05-23T08:57:02;1999.90;;;999.90;;
21168;SDS011;10742;51.816;8.662;2023-05-23T09:00:12;1999.90;;;999.90;;
21168;SDS011;10742;51.816;8.662;2023-05-23T09:03:16;1999.90;;;999.90;;
21168;SDS011;10742;51.816;8.662;2023-05-23T09:06:36;1999.90;;;999.90;;
21168;SDS011;10742;51.816;8.662;2023-05-23T09:09:39;1999.90;;;999.90;;
21168;SDS011;10742;51.816;8.662;2023-05-23T09:12:44;1999.90;;;999.90;;
21168;SDS011;10742;51.816;8.662;2023-05-23T09:16:00;1999.90;;;999.90;;
21168;SDS011;10742;51.816;8.662;2023-05-23T09:19:09;1999.90;;;999.90;;
21168;SDS011;10742;51.816;8.662;2023-05-23T09:22:12;1999.90;;;999.90;;
21168;SDS011;10742;51.816;8.662;2023-05-23T09:25:31;1999.90;;;999.90;;
21168;SDS011;10742;51.816;8.662;2023-05-23T09:28:36;1999.90;;;999.90;;
21168;SDS011;10742;51.816;8.662;2023-05-23T09:31:39;1999.90;;;999.90;;
21168;SDS011;10742;51.816;8.662;2023-05-23T09:34:53;1999.90;;;999.90;;
21168;SDS011;10742;51.816;8.662;2023-05-23T09:38:00;1999.90;;;999.90;;
21168;SDS011;10742;51.816;8.662;2023-05-23T09:41:04;1999.90;;;999.90;;
21168;SDS011;10742;51.816;8.662;2023-05-23T09:44:07;1999.90;;;999.90;;
21168;SDS011;10742;51.816;8.662;2023-05-23T09:47:10;1999.90;;;999.90;;
21168;SDS011;10742;51.816;8.662;2023-05-23T09:50:13;1999.90;;;999.90;;
21168;SDS011;10742;51.816;8.662;2023-05-23T09:53:15;1999.90;;;999.90;;
21168;SDS011;10742;51.816;8.662;2023-05-23T09:56:18;1999.90;;;999.90;;
21168;SDS011;10742;51.816;8.662;2023-05-23T09:59:21;1999.90;;;996.77;;
21168;SDS011;10742;51.816;8.662;2023-05-23T10:02:52;1999.90;;;994.87;;
21168;SDS011;10742;51.816;8.662;2023-05-23T10:05:56;1999.90;;;995.67;;
21168;SDS011;10742;51.816;8.662;2023-05-23T10:09:05;1999.90;;;999.90;;
21168;SDS011;10742;51.816;8.662;2023-05-23T10:15:33;1999.90;;;989.90;;
21168;SDS011;10742;51.816;8.662;2023-05-23T10:18:43;1999.90;;;999.90;;
21168;SDS011;10742;51.816;8.662;2023-05-23T10:21:49;1999.90;;;997.07;;
21168;SDS011;10742;51.816;8.662;2023-05-23T10:24:55;1999.90;;;999.90;;
21168;SDS011;10742;51.816;8.662;2023-05-23T10:27:58;1999.90;;;983.03;;
21168;SDS011;10742;51.816;8.662;2023-05-23T10:31:01;1999.90;;;976.23;;
21168;SDS011;10742;51.816;8.662;2023-05-23T10:34:11;1999.90;;;996.03;;
21168;SDS011;10742;51.816;8.662;2023-05-23T10:37:39;1999.90;;;988.73;;
21168;SDS011;10742;51.816;8.662;2023-05-23T10:41:09;1999.90;;;978.07;;
21168;SDS011;10742;51.816;8.662;2023-05-23T10:44:28;1999.90;;;927.07;;
21168;SDS011;10742;51.816;8.662;2023-05-23T10:47:31;1999.90;;;968.40;;
21168;SDS011;10742;51.816;8.662;2023-05-23T10:50:35;1999.90;;;992.43;;
21168;SDS011;10742;51.816;8.662;2023-05-23T10:53:39;1999.90;;;925.73;;
21168;SDS011;10742;51.816;8.662;2023-05-23T10:57:01;1999.90;;;917.47;;
21168;SDS011;10742;51.816;8.662;2023-05-23T11:00:10;1999.90;;;837.03;;
21168;SDS011;10742;51.816;8.662;2023-05-23T11:03:17;1999.90;;;856.33;;
21168;SDS011;10742;51.816;8.662;2023-05-23T11:06:30;1999.90;;;847.97;;
21168;SDS011;10742;51.816;8.662;2023-05-23T11:13:25;1999.90;;;831.70;;
21168;SDS011;10742;51.816;8.662;2023-05-23T11:17:17;1999.90;;;744.73;;
21168;SDS011;10742;51.816;8.662;2023-05-23T11:20:30;1999.90;;;808.37;;
21168;SDS011;10742;51.816;8.662;2023-05-23T11:23:39;1999.90;;;771.13;;
21168;SDS011;10742;51.816;8.662;2023-05-23T11:26:52;1999.90;;;751.70;;
21168;SDS011;10742;51.816;8.662;2023-05-23T11:33:09;1999.90;;;692.27;;
21168;SDS011;10742;51.816;8.662;2023-05-23T11:36:15;1999.90;;;590.20;;
21168;SDS011;10742;51.816;8.662;2023-05-23T11:39:17;1999.90;;;561.83;;
21168;SDS011;10742;51.816;8.662;2023-05-23T11:42:22;1999.90;;;507.57;;
21168;SDS011;10742;51.816;8.662;2023-05-23T11:45:25;1897.70;;;469.90;;
21168;SDS011;10742;51.816;8.662;2023-05-23T11:48:28;1451.87;;;394.67;;
21168;SDS011;10742;51.816;8.662;2023-05-23T11:51:31;1360.13;;;377.47;;
21168;SDS011;10742;51.816;8.662;2023-05-23T11:54:33;1200.90;;;353.40;;
21168;SDS011;10742;51.816;8.662;2023-05-23T11:57:38;1177.53;;;341.50;;
21168;SDS011;10742;51.816;8.662;2023-05-23T12:00:42;1162.97;;;247.17;;
21168;SDS011;10742;51.816;8.662;2023-05-23T12:03:48;148.30;;;64.73;;
21168;SDS011;10742;51.816;8.662;2023-05-23T12:06:52;82.07;;;39.60;;
21168;SDS011;10742;51.816;8.662;2023-05-23T12:09:54;76.33;;;34.13;;
21168;SDS011;10742;51.816;8.662;2023-05-23T12:12:58;39.07;;;18.33;;
21168;SDS011;10742;51.816;8.662;2023-05-23T12:16:01;42.60;;;21.27;;
21168;SDS011;10742;51.816;8.662;2023-05-23T12:19:05;26.00;;;11.10;;
21168;SDS011;10742;51.816;8.662;2023-05-23T12:22:07;24.60;;;10.27;;
21168;SDS011;10742;51.816;8.662;2023-05-23T12:25:09;20.33;;;7.57;;
21168;SDS011;10742;51.816;8.662;2023-05-23T12:28:12;15.77;;;7.67;;
21168;SDS011;10742;51.816;8.662;2023-05-23T12:31:15;18.57;;;7.73;;
21168;SDS011;10742;51.816;8.662;2023-05-23T12:34:22;18.60;;;6.60;;
21168;SDS011;10742;51.816;8.662;2023-05-23T12:37:24;19.03;;;6.67;;
21168;SDS011;10742;51.816;8.662;2023-05-23T12:40:27;18.37;;;6.27;;
21168;SDS011;10742;51.816;8.662;2023-05-23T12:43:29;18.20;;;6.90;;
21168;SDS011;10742;51.816;8.662;2023-05-23T12:46:31;13.90;;;4.80;;
21168;SDS011;10742;51.816;8.662;2023-05-23T12:49:34;17.57;;;5.07;;
21168;SDS011;10742;51.816;8.662;2023-05-23T12:52:36;14.83;;;4.50;;
21168;SDS011;10742;51.816;8.662;2023-05-23T12:55:39;16.93;;;4.37;;
21168;SDS011;10742;51.816;8.662;2023-05-23T12:58:42;14.27;;;4.20;;
21168;SDS011;10742;51.816;8.662;2023-05-23T13:01:45;17.23;;;4.47;;
21168;SDS011;10742;51.816;8.662;2023-05-23T13:04:50;16.17;;;4.30;;
21168;SDS011;10742;51.816;8.662;2023-05-23T13:07:53;15.67;;;4.70;;
21168;SDS011;10742;51.816;8.662;2023-05-23T13:10:56;16.13;;;4.13;;
21168;SDS011;10742;51.816;8.662;2023-05-23T13:14:00;20.03;;;4.43;;
21168;SDS011;10742;51.816;8.662;2023-05-23T13:17:03;18.53;;;4.10;;
21168;SDS011;10742;51.816;8.662;2023-05-23T13:20:05;15.83;;;4.03;;
21168;SDS011;10742;51.816;8.662;2023-05-23T13:23:10;13.53;;;3.67;;
21168;SDS011;10742;51.816;8.662;2023-05-23T13:26:12;15.53;;;3.83;;
21168;SDS011;10742;51.816;8.662;2023-05-23T13:29:15;15.80;;;3.73;;
21168;SDS011;10742;51.816;8.662;2023-05-23T13:32:18;12.97;;;3.57;;
21168;SDS011;10742;51.816;8.662;2023-05-23T13:35:23;16.47;;;3.60;;
21168;SDS011;10742;51.816;8.662;2023-05-23T13:38:27;12.87;;;3.60;;
21168;SDS011;10742;51.816;8.662;2023-05-23T13:41:31;20.40;;;3.90;;
21168;SDS011;10742;51.816;8.662;2023-05-23T13:44:35;15.23;;;3.67;;
21168;SDS011;10742;51.816;8.662;2023-05-23T13:47:37;17.73;;;3.97;;
21168;SDS011;10742;51.816;8.662;2023-05-23T13:50:40;19.47;;;4.13;;
21168;SDS011;10742;51.816;8.662;2023-05-23T13:53:43;15.80;;;3.60;;
21168;SDS011;10742;51.816;8.662;2023-05-23T13:56:45;18.27;;;3.70;;
21168;SDS011;10742;51.816;8.662;2023-05-23T13:59:48;19.33;;;3.97;;
21168;SDS011;10742;51.816;8.662;2023-05-23T14:02:50;17.67;;;4.17;;
21168;SDS011;10742;51.816;8.662;2023-05-23T14:05:52;18.73;;;3.73;;
21168;SDS011;10742;51.816;8.662;2023-05-23T14:08:54;11.53;;;3.30;;
21168;SDS011;10742;51.816;8.662;2023-05-23T14:11:57;17.63;;;3.73;;
21168;SDS011;10742;51.816;8.662;2023-05-23T14:14:59;15.50;;;3.77;;
21168;SDS011;10742;51.816;8.662;2023-05-23T14:18:01;21.00;;;4.50;;
21168;SDS011;10742;51.816;8.662;2023-05-23T14:21:04;16.27;;;3.80;;
21168;SDS011;10742;51.816;8.662;2023-05-23T14:24:06;13.77;;;3.73;;
21168;SDS011;10742;51.816;8.662;2023-05-23T14:27:09;13.03;;;3.40;;
21168;SDS011;10742;51.816;8.662;2023-05-23T14:30:12;14.27;;;3.60;;
21168;SDS011;10742;51.816;8.662;2023-05-23T14:33:14;12.07;;;3.77;;
21168;SDS011;10742;51.816;8.662;2023-05-23T14:36:16;16.80;;;3.60;;
21168;SDS011;10742;51.816;8.662;2023-05-23T14:39:19;20.33;;;3.50;;
21168;SDS011;10742;51.816;8.662;2023-05-23T14:42:21;11.67;;;3.63;;
21168;SDS011;10742;51.816;8.662;2023-05-23T14:45:24;13.17;;;3.47;;
21168;SDS011;10742;51.816;8.662;2023-05-23T14:48:26;11.17;;;3.60;;
21168;SDS011;10742;51.816;8.662;2023-05-23T14:51:28;11.87;;;3.03;;
21168;SDS011;10742;51.816;8.662;2023-05-23T14:54:43;14.13;;;3.73;;
21168;SDS011;10742;51.816;8.662;2023-05-23T14:57:45;13.13;;;3.37;;
21168;SDS011;10742;51.816;8.662;2023-05-23T15:00:47;12.17;;;3.40;;
21168;SDS011;10742;51.816;8.662;2023-05-23T15:03:50;12.43;;;3.23;;
21168;SDS011;10742;51.816;8.662;2023-05-23T15:06:52;15.83;;;3.37;;
21168;SDS011;10742;51.816;8.662;2023-05-23T15:09:55;14.67;;;3.30;;
21168;SDS011;10742;51.816;8.662;2023-05-23T15:12:57;14.80;;;3.33;;
21168;SDS011;10742;51.816;8.662;2023-05-23T15:16:00;12.20;;;3.70;;
21168;SDS011;10742;51.816;8.662;2023-05-23T15:19:02;15.90;;;3.67;;
21168;SDS011;10742;51.816;8.662;2023-05-23T15:22:06;11.43;;;3.23;;
21168;SDS011;10742;51.816;8.662;2023-05-23T15:25:09;13.30;;;3.47;;
21168;SDS011;10742;51.816;8.662;2023-05-23T15:28:12;17.63;;;3.70;;
21168;SDS011;10742;51.816;8.662;2023-05-23T15:31:14;16.13;;;3.57;;
21168;SDS011;10742;51.816;8.662;2023-05-23T15:34:17;13.53;;;3.60;;
21168;SDS011;10742;51.816;8.662;2023-05-23T15:37:19;15.93;;;3.77;;
21168;SDS011;10742;51.816;8.662;2023-05-23T15:40:22;16.13;;;3.20;;
21168;SDS011;10742;51.816;8.662;2023-05-23T15:43:24;12.13;;;3.80;;
21168;SDS011;10742;51.816;8.662;2023-05-23T15:46:26;14.73;;;3.40;;
21168;SDS011;10742;51.816;8.662;2023-05-23T15:49:29;13.20;;;3.30;;
21168;SDS011;10742;51.816;8.662;2023-05-23T15:52:31;16.70;;;3.17;;
21168;SDS011;10742;51.816;8.662;2023-05-23T15:55:34;19.90;;;3.80;;
21168;SDS011;10742;51.816;8.662;2023-05-23T15:58:37;14.43;;;3.80;;
21168;SDS011;10742;51.816;8.662;2023-05-23T16:01:39;11.57;;;2.97;;
21168;SDS011;10742;51.816;8.662;2023-05-23T16:04:42;10.67;;;3.00;;
21168;SDS011;10742;51.816;8.662;2023-05-23T16:07:45;12.37;;;3.30;;
21168;SDS011;10742;51.816;8.662;2023-05-23T16:10:47;14.67;;;3.40;;
21168;SDS011;10742;51.816;8.662;2023-05-23T16:13:49;16.37;;;3.17;;
21168;SDS011;10742;51.816;8.662;2023-05-23T16:16:52;11.60;;;2.70;;
21168;SDS011;10742;51.816;8.662;2023-05-23T16:19:54;13.73;;;2.67;;
21168;SDS011;10742;51.816;8.662;2023-05-23T16:22:56;11.20;;;2.77;;
21168;SDS011;10742;51.816;8.662;2023-05-23T16:25:59;13.33;;;3.67;;
21168;SDS011;10742;51.816;8.662;2023-05-23T16:29:01;16.03;;;3.17;;
21168;SDS011;10742;51.816;8.662;2023-05-23T16:32:03;14.40;;;3.13;;
21168;SDS011;10742;51.816;8.662;2023-05-23T16:35:06;10.57;;;3.03;;
21168;SDS011;10742;51.816;8.662;2023-05-23T16:38:09;15.13;;;3.03;;
21168;SDS011;10742;51.816;8.662;2023-05-23T16:41:12;12.23;;;3.07;;
21168;SDS011;10742;51.816;8.662;2023-05-23T16:44:14;16.57;;;3.30;;
21168;SDS011;10742;51.816;8.662;2023-05-23T16:47:16;12.90;;;3.30;;
21168;SDS011;10742;51.816;8.662;2023-05-23T16:50:19;16.00;;;3.10;;
21168;SDS011;10742;51.816;8.662;2023-05-23T16:53:23;17.07;;;3.37;;
21168;SDS011;10742;51.816;8.662;2023-05-23T16:56:26;15.67;;;3.30;;
21168;SDS011;10742;51.816;8.662;2023-05-23T16:59:47;11.50;;;3.33;;
21168;SDS011;10742;51.816;8.662;2023-05-23T17:03:08;14.10;;;3.27;;
21168;SDS011;10742;51.816;8.662;2023-05-23T17:06:30;16.20;;;3.03;;
21168;SDS011;10742;51.816;8.662;2023-05-23T17:09:51;11.43;;;2.90;;
21168;SDS011;10742;51.816;8.662;2023-05-23T17:12:54;15.03;;;2.87;;
21168;SDS011;10742;51.816;8.662;2023-05-23T17:15:56;16.37;;;3.37;;
21168;SDS011;10742;51.816;8.662;2023-05-23T17:18:59;9.90;;;3.00;;
21168;SDS011;10742;51.816;8.662;2023-05-23T17:22:01;16.60;;;3.77;;
21168;SDS011;10742;51.816;8.662;2023-05-23T17:25:05;19.30;;;3.70;;
21168;SDS011;10742;51.816;8.662;2023-05-23T17:28:08;16.33;;;3.30;;
21168;SDS011;10742;51.816;8.662;2023-05-23T17:31:12;12.90;;;2.90;;
21168;SDS011;10742;51.816;8.662;2023-05-23T17:34:15;15.03;;;3.23;;
21168;SDS011;10742;51.816;8.662;2023-05-23T17:37:18;12.23;;;3.27;;
21168;SDS011;10742;51.816;8.662;2023-05-23T17:40:20;16.07;;;3.33;;
21168;SDS011;10742;51.816;8.662;2023-05-23T17:43:23;10.53;;;2.83;;
21168;SDS011;10742;51.816;8.662;2023-05-23T17:46:26;11.77;;;2.70;;
21168;SDS011;10742;51.816;8.662;2023-05-23T17:49:28;17.40;;;3.10;;
21168;SDS011;10742;51.816;8.662;2023-05-23T17:52:31;12.80;;;2.67;;
21168;SDS011;10742;51.816;8.662;2023-05-23T17:55:33;13.80;;;3.17;;